KJYG

Details ICAO KJYG
Name ST JAMES MUNI
Region United States
Timezone America/Chicago (UTC-6.0)
Plans Departing 0
Arriving 0
Stats Elevation 1,067 ft / 325 m (AMSL)
Location 43.986319° -94.557937°
Runways 1
Magnetic Variation 1.346° E
Sunrise 2017-12-15 13:47:35 UTC / 2017-12-15 07:47:35 Local
Sunset 2017-12-15 22:42:13 UTC / 2017-12-15 16:42:13 Local
Advertisement - Login to hide

Runways

ID Width Length Bearing (true) Bearing (mag) Surface Threshold Offset Overrun Length
15 75 ft / 23 m 4,000 ft / 1,219 m 149.29° 147.94° Asphalt 0 ft / 0 m 0 ft / 0 m
33 75 ft / 23 m 4,000 ft / 1,219 m 329.29° 327.94° Asphalt 0 ft / 0 m 0 ft / 0 m

Map

Weather


0- 5 10 15 20 25 30 35+ Temperature / ° C

Clouds and Precipitation
Forecast for 2017-12-15 12:00 UTC. Updated an hour ago

Ground ~20,000 ft ~40,000 ft Winds

METAR

KJYG 151015Z AUTO 24009KT 10SM OVC034 M02/M04 A2994 RMK AO2

TAF

Not found

Frequencies

Unicom 122.90 MHz CTAF
Warning: Do not use this data for real-world aviation or navigation. No guarantee of current accuracy is given.